< Typhoon 201925 2019 Season Typhoon 201927 >
Typhoon 201926 (KALMAEGI)
General InformationTrack Information on Google MapsDetailed Wind InformationForecast History on Google MapsAccess Analytics MapList of All Images || NewsDisaster Info.WeblogTrackbackTyphoon FrontTwiphoonTyphoon Now!Typhoon ImaginationJMA Disaster Info. XMLResourceGoogle EarthGE AnimationAtom FeedGeoJSON
Detalied Best Track (Time Zone = UTC)
Year Month Day Hour Lat. Long. Pressure (hPa) Wind (kt) Class Image Chart
2019 11 9 18 14.3 136.0 1004 0 2 Image Chart
2019 11 10 00 14.1 135.7 1004 0 2 Image Chart
2019 11 10 06 13.9 135.5 1004 0 2 Image Chart
2019 11 10 12 13.7 135.2 1004 0 2 Image Chart
2019 11 10 18 13.5 134.9 1002 0 2 Image Chart
2019 11 11 00 13.4 134.5 1004 0 2 Image Chart
2019 11 11 06 13.3 133.9 1002 0 2 Image Chart
2019 11 11 12 12.6 133.3 1004 0 2 Image Chart
2019 11 11 18 12.0 132.9 1002 0 2 Image Chart
2019 11 12 00 11.6 132.6 1004 0 2 Image Chart
2019 11 12 06 11.7 132.0 1002 0 2 Image Chart
2019 11 12 12 12.0 131.1 1004 0 2 Image Chart
2019 11 12 18 12.3 130.1 1002 0 2 Image Chart
2019 11 13 00 12.6 129.2 1002 0 2 Image Chart
2019 11 13 06 12.8 128.4 1002 0 2 Image Chart
2019 11 13 12 13.0 128.5 1002 0 2 Image Chart
2019 11 13 18 13.2 128.6 1002 0 2 Image Chart
2019 11 14 00 14.6 128.7 1002 0 2 Image Chart
2019 11 14 06 15.8 127.6 1002 0 2 Image Chart
2019 11 14 12 16.4 127.6 1000 35 3 Image Chart
2019 11 14 18 16.9 127.2 1000 35 3 Image Chart
2019 11 15 00 17.3 126.6 1000 35 3 Image Chart
2019 11 15 06 16.9 126.2 1000 35 3 Image Chart
2019 11 15 12 16.8 126.3 1000 35 3 Image Chart
2019 11 15 18 16.6 126.4 1000 35 3 Image Chart
2019 11 16 00 16.2 126.7 1000 35 3 Image Chart
2019 11 16 06 15.9 126.6 1000 35 3 Image Chart
2019 11 16 12 16.2 126.3 1000 35 3 Image Chart
2019 11 16 18 16.3 126.0 1000 35 3 Image Chart
2019 11 17 00 16.5 125.5 1000 35 3 Image Chart
2019 11 17 06 16.7 124.9 998 40 3 Image Chart
2019 11 17 12 17.0 124.0 996 45 3 Image Chart
2019 11 17 18 17.3 123.6 996 45 3 Image Chart
2019 11 18 00 17.6 123.3 992 50 4 Image Chart
2019 11 18 06 18.1 123.1 985 60 4 Image Chart
2019 11 18 12 18.8 122.9 980 65 5 Image Chart
2019 11 18 18 19.1 122.7 975 70 5 Image Chart
2019 11 19 00 19.2 122.6 975 70 5 Image Chart
2019 11 19 06 19.5 122.6 975 70 5 Image Chart
2019 11 19 12 19.4 122.3 975 70 5 Image Chart
2019 11 19 18 18.4 122.1 1000 45 3 Image Chart
2019 11 20 00 17.4 121.7 1006 0 2 Image Chart
2019 11 20 06 16.6 121.0 1006 0 2 Image Chart
2019 11 20 12 15.8 120.0 1006 0 2 Image Chart
2019 11 20 18 15.1 119.2 1008 0 2 Image Chart
2019 11 21 00 14.6 118.4 1008 0 2 Image Chart
2019 11 21 06 13.8 117.3 1008 0 2 Image Chart
2019 11 21 12 13.0 116.2 1010 0 2 Image Chart
2019 11 21 18 12.1 115.1 1008 0 2 Image Chart
2019 11 22 00 11.4 114.0 1010 0 2 Image Chart
Japan Meteorological Agency Best Track Data | Correction Date : 2020-01-14
< Typhoon 201925 2019 Season Typhoon 201927 >

Help